createdAt,value
2022-08-03T00:01:49.818Z,52.31
2022-08-03T00:07:20.838Z,52.36
2022-08-03T00:12:51.696Z,52.36
2022-08-03T00:18:22.828Z,52.48
2022-08-03T00:23:54.047Z,52.39
2022-08-03T00:29:25.144Z,53.09
2022-08-03T00:34:58.504Z,53.08
2022-08-03T00:40:30.116Z,53.30
2022-08-03T00:46:01.165Z,53.61
2022-08-03T00:51:34.218Z,53.94
2022-08-03T00:57:05.107Z,54.28
2022-08-03T01:02:36.364Z,54.58
2022-08-03T01:08:42.718Z,54.45
2022-08-03T01:14:20.049Z,54.47
2022-08-03T01:20:08.535Z,54.67
2022-08-03T01:25:48.011Z,54.49
2022-08-03T01:32:54.504Z,54.73
2022-08-03T01:37:39.123Z,55.10
2022-08-03T01:44:27.698Z,55.28
2022-08-03T01:49:11.525Z,55.10
2022-08-03T01:54:44.870Z,55.11
2022-08-03T02:00:17.104Z,55.14
2022-08-03T02:06:11.542Z,55.33
2022-08-03T02:11:43.992Z,55.07
2022-08-03T02:17:15.115Z,55.32
2022-08-03T02:22:46.903Z,55.72
2022-08-03T02:28:20.378Z,55.58
2022-08-03T02:33:53.798Z,55.82
2022-08-03T02:39:25.396Z,55.91
2022-08-03T02:44:58.063Z,56.10
2022-08-03T02:50:28.915Z,55.65
2022-08-03T02:55:59.971Z,55.85
2022-08-03T03:01:31.781Z,55.75
2022-08-03T03:07:04.372Z,56.10
2022-08-03T03:12:37.560Z,56.08
2022-08-03T03:18:10.300Z,55.99
2022-08-03T03:23:41.373Z,55.53
2022-08-03T03:29:12.609Z,56.04
2022-08-03T03:34:44.242Z,55.85
2022-08-03T03:40:15.867Z,55.87
2022-08-03T03:45:47.937Z,55.97
2022-08-03T03:51:18.859Z,56.18
2022-08-03T03:56:49.866Z,55.98
2022-08-03T04:02:21.402Z,56.19
2022-08-03T04:08:23.247Z,56.08
2022-08-03T04:14:05.495Z,56.35
2022-08-03T04:19:45.549Z,56.63
2022-08-03T04:25:19.599Z,57.17
2022-08-03T04:30:53.673Z,57.20
2022-08-03T04:36:27.560Z,57.38
2022-08-03T04:42:08.590Z,57.39
2022-08-03T04:47:40.377Z,57.72
2022-08-03T04:53:11.365Z,57.84
2022-08-03T04:58:42.227Z,58.14
2022-08-03T05:04:13.683Z,58.50
2022-08-03T05:09:50.443Z,58.00
2022-08-03T05:15:28.820Z,58.23
2022-08-03T05:20:59.747Z,58.23
2022-08-03T05:26:30.751Z,58.17
2022-08-03T05:32:07.765Z,57.86
2022-08-03T05:37:39.431Z,58.34
2022-08-03T05:43:25.507Z,58.88
2022-08-03T05:48:56.395Z,58.63
2022-08-03T05:54:55.619Z,59.04
2022-08-03T06:00:18.965Z,58.61
2022-08-03T06:05:57.380Z,57.80
2022-08-03T06:11:31.664Z,57.15
2022-08-03T06:17:02.799Z,56.82
2022-08-03T06:22:33.850Z,55.75
2022-08-03T06:28:05.564Z,55.16
2022-08-03T06:34:30.074Z,54.85
2022-08-03T06:39:27.869Z,54.19
2022-08-03T06:44:58.713Z,53.95
2022-08-03T06:50:29.752Z,53.76
2022-08-03T06:56:00.939Z,53.22
2022-08-03T07:01:31.931Z,52.75
2022-08-03T07:07:03.179Z,52.56
2022-08-03T07:12:35.303Z,52.11
2022-08-03T07:18:07.104Z,51.75
2022-08-03T07:23:38.897Z,51.68
2022-08-03T07:29:14.900Z,51.47
2022-08-03T07:34:46.224Z,51.31
2022-08-03T07:40:17.903Z,51.03
2022-08-03T07:45:50.405Z,50.83
2022-08-03T07:51:21.629Z,50.69
2022-08-03T07:56:52.429Z,50.34
2022-08-03T08:02:23.348Z,50.03
2022-08-03T08:07:54.623Z,49.98
2022-08-03T08:13:25.961Z,49.92
2022-08-03T08:18:57.013Z,49.72
2022-08-03T08:24:30.660Z,49.41
2022-08-03T08:30:11.494Z,49.09
2022-08-03T08:35:43.685Z,48.85
2022-08-03T08:41:15.345Z,48.73
2022-08-03T08:46:46.752Z,48.25
2022-08-03T08:52:24.894Z,48.35
2022-08-03T08:58:05.845Z,48.10
2022-08-03T09:03:36.816Z,47.65
2022-08-03T09:09:08.454Z,47.54
2022-08-03T09:14:54.794Z,47.24
2022-08-03T09:20:34.063Z,47.03
2022-08-03T09:26:05.057Z,46.63
2022-08-03T09:31:37.106Z,46.25
2022-08-03T09:37:16.759Z,46.21
2022-08-03T09:42:57.793Z,45.90
2022-08-03T09:48:31.372Z,45.56
2022-08-03T09:54:05.559Z,45.15
2022-08-03T09:59:41.275Z,45.22
2022-08-03T10:05:17.577Z,44.78
2022-08-03T10:10:55.365Z,44.48
2022-08-03T10:16:26.532Z,44.52
2022-08-03T10:22:03.487Z,44.65
2022-08-03T10:27:42.504Z,44.91
2022-08-03T10:33:49.744Z,44.72
2022-08-03T10:39:16.363Z,44.54
2022-08-03T10:44:50.603Z,44.37
2022-08-03T10:50:24.009Z,44.04
2022-08-03T10:56:13.699Z,43.91
2022-08-03T11:01:58.275Z,44.15
2022-08-03T11:07:30.776Z,44.06
2022-08-03T11:13:08.175Z,44.37
2022-08-03T11:18:56.442Z,43.93
2022-08-03T11:24:36.510Z,43.64
2022-08-03T11:30:19.607Z,43.51
2022-08-03T11:36:02.106Z,43.24
2022-08-03T11:41:45.236Z,42.80
2022-08-03T11:47:18.545Z,42.71
2022-08-03T11:52:50.664Z,42.36
2022-08-03T11:58:58.272Z,43.08
2022-08-03T12:04:14.123Z,42.85
2022-08-03T12:10:12.350Z,42.34
2022-08-03T12:15:45.374Z,42.16
2022-08-03T12:21:18.688Z,41.46
2022-08-03T12:26:58.392Z,40.77
2022-08-03T12:32:31.156Z,40.89
2022-08-03T12:38:03.463Z,40.65
2022-08-03T12:43:39.382Z,40.65
2022-08-03T12:49:15.603Z,40.66
2022-08-03T12:55:00.684Z,41.16
2022-08-03T13:00:32.832Z,40.87
2022-08-03T13:06:31.293Z,40.93
2022-08-03T13:12:10.682Z,40.57
2022-08-03T13:17:41.636Z,40.86
2022-08-03T13:23:12.943Z,40.45
2022-08-03T13:28:53.271Z,40.72
2022-08-03T13:34:24.224Z,40.12
2022-08-03T13:39:59.285Z,40.04
2022-08-03T13:45:32.316Z,40.04
2022-08-03T13:51:11.719Z,40.14
2022-08-03T13:56:55.772Z,40.20
2022-08-03T14:02:28.951Z,40.22
2022-08-03T14:08:05.938Z,40.38
2022-08-03T14:13:37.876Z,40.27
2022-08-03T14:19:08.781Z,40.43
2022-08-03T14:24:40.080Z,40.74
2022-08-03T14:30:11.900Z,40.63
2022-08-03T14:35:43.108Z,40.37
2022-08-03T14:41:20.088Z,40.33
2022-08-03T14:46:51.296Z,40.36
2022-08-03T14:52:22.408Z,40.70
2022-08-03T14:57:53.437Z,40.94
2022-08-03T15:03:25.337Z,41.34
2022-08-03T15:09:21.525Z,40.88
2022-08-03T15:14:47.499Z,41.45
2022-08-03T15:20:28.872Z,41.80
2022-08-03T15:26:30.688Z,41.85
2022-08-03T15:31:57.453Z,41.83
2022-08-03T15:37:28.805Z,41.88
2022-08-03T15:43:01.751Z,42.14
2022-08-03T15:48:32.997Z,42.17
2022-08-03T15:54:04.612Z,41.93
2022-08-03T15:59:35.831Z,41.82
2022-08-03T16:05:07.339Z,42.01
2022-08-03T16:10:38.231Z,41.84
2022-08-03T16:16:09.587Z,41.58
2022-08-03T16:21:48.030Z,41.69
2022-08-03T16:27:37.686Z,41.65
2022-08-03T16:33:16.534Z,41.63
2022-08-03T16:38:49.195Z,41.74
2022-08-03T16:44:20.913Z,42.08
2022-08-03T16:49:53.090Z,41.72
2022-08-03T16:55:48.854Z,42.09
2022-08-03T17:01:21.791Z,42.11
2022-08-03T17:06:55.764Z,41.58
2022-08-03T17:12:27.525Z,42.26
2022-08-03T17:18:08.673Z,42.37
2022-08-03T17:23:44.596Z,42.17
2022-08-03T17:29:19.729Z,41.39
2022-08-03T17:34:54.751Z,42.60
2022-08-03T17:40:26.188Z,42.77
2022-08-03T17:45:59.319Z,43.25
2022-08-03T17:58:01.361Z,43.27
2022-08-03T18:03:44.881Z,43.48
2022-08-03T18:10:05.847Z,43.53
2022-08-03T18:15:33.060Z,43.54
2022-08-03T18:27:03.162Z,43.08
2022-08-03T18:32:35.110Z,43.03
2022-08-03T18:38:10.218Z,42.79
2022-08-03T18:44:06.938Z,42.27
2022-08-03T18:49:50.922Z,42.81
2022-08-03T18:55:32.906Z,43.26
2022-08-03T19:01:59.830Z,43.41
2022-08-03T19:07:35.904Z,43.51
2022-08-03T19:13:11.663Z,44.03
2022-08-03T19:18:49.518Z,43.80
2022-08-03T19:24:25.984Z,43.68
2022-08-03T19:30:03.711Z,43.96
2022-08-03T19:35:52.177Z,43.90
2022-08-03T19:41:41.855Z,43.65
2022-08-03T19:47:30.020Z,43.62
2022-08-03T19:53:07.247Z,43.73
2022-08-03T19:58:43.402Z,43.40
2022-08-03T20:04:14.932Z,44.11
2022-08-03T20:09:46.390Z,44.35
2022-08-03T20:15:31.847Z,44.12
2022-08-03T20:21:06.067Z,44.33
2022-08-03T20:26:49.305Z,44.02
2022-08-03T20:32:24.925Z,44.10
2022-08-03T20:37:56.177Z,43.76
2022-08-03T20:43:30.297Z,43.47
2022-08-03T20:49:03.922Z,42.84
2022-08-03T20:54:36.543Z,43.38
2022-08-03T21:00:12.300Z,42.86
2022-08-03T21:05:51.148Z,43.47
2022-08-03T21:11:25.235Z,43.46
2022-08-03T21:12:55.449Z,43.02
2022-08-03T21:12:57.780Z,43.03
2022-08-03T21:16:56.305Z,42.53
2022-08-03T21:22:31.138Z,43.11
2022-08-03T21:28:02.226Z,41.66
2022-08-03T21:33:34.090Z,42.45
2022-08-03T21:39:08.444Z,42.58
2022-08-03T21:44:39.661Z,42.55
2022-08-03T21:50:12.930Z,42.25
2022-08-03T21:55:58.162Z,42.11
2022-08-03T22:01:31.330Z,41.23
2022-08-03T22:07:08.607Z,42.32
2022-08-03T22:12:40.319Z,42.35
2022-08-03T22:18:11.749Z,41.89
2022-08-03T22:23:49.865Z,42.42
2022-08-03T22:29:20.870Z,42.47
2022-08-03T22:34:52.158Z,42.57
2022-08-03T22:40:23.414Z,42.67
2022-08-03T22:46:09.616Z,42.57
2022-08-03T22:51:43.549Z,42.38
2022-08-03T22:57:14.674Z,42.48
2022-08-03T23:02:47.683Z,42.69
2022-08-03T23:08:23.929Z,42.43
2022-08-03T23:13:57.056Z,42.37
2022-08-03T23:19:28.120Z,43.34
2022-08-03T23:25:06.357Z,42.92
2022-08-03T23:30:37.856Z,43.09
2022-08-03T23:36:30.768Z,43.14
2022-08-03T23:42:01.220Z,43.28
2022-08-03T23:47:46.264Z,43.28
2022-08-03T23:53:22.909Z,43.42
2022-08-03T23:58:57.034Z,43.27
